Time,TemperatureF,DewpointF,PressureIn,WindDirection,WindDirectionDegrees,WindSpeedMPH,WindSpeedGustMPH,Humidity,HourlyPrecipIn,Conditions,Clouds,dailyrainin,SoftwareType,DateUTC
2013-07-10 00:01:00,81.5,51.2,30.16,SSW,202,3.1,3.1,35,0.00,,---,0.00,VWS V14.01,2013-07-10 06:01:00,
2013-07-10 00:06:00,81.5,52.0,30.16,South,180,3.4,3.4,36,0.00,,---,0.00,VWS V14.01,2013-07-10 06:06:00,
2013-07-10 00:11:00,81.4,51.9,30.17,SW,225,3.1,3.1,36,0.00,,---,0.00,VWS V14.01,2013-07-10 06:11:00,
2013-07-10 00:16:00,81.4,52.7,30.16,SW,225,3.8,3.8,37,0.00,,---,0.00,VWS V14.01,2013-07-10 06:16:00,
2013-07-10 00:21:00,81.2,52.5,30.17,SE,135,6.0,6.0,37,0.00,,---,0.00,VWS V14.01,2013-07-10 06:21:00,
2013-07-10 00:26:00,81.2,52.5,30.17,South,180,4.7,4.7,37,0.00,,---,0.00,VWS V14.01,2013-07-10 06:26:00,
2013-07-10 00:31:00,81.0,52.3,30.17,SW,225,4.7,4.7,37,0.00,,---,0.00,VWS V14.01,2013-07-10 06:31:00,
2013-07-10 00:36:00,81.0,52.3,30.17,SE,135,2.7,2.7,37,0.00,,---,0.00,VWS V14.01,2013-07-10 06:36:00,
2013-07-10 00:41:00,80.8,52.1,30.17,SSE,158,3.8,3.8,37,0.00,,---,0.00,VWS V14.01,2013-07-10 06:41:00,
2013-07-10 00:46:00,80.6,52.0,30.17,SE,135,6.7,6.7,37,0.00,,---,0.00,VWS V14.01,2013-07-10 06:46:00,
2013-07-10 00:51:00,80.6,52.7,30.16,SSE,158,2.9,4.0,38,0.00,,---,0.00,VWS V14.01,2013-07-10 06:51:00,
2013-07-10 00:56:00,80.6,52.7,30.16,SSE,158,2.2,2.7,38,0.00,,---,0.00,VWS V14.01,2013-07-10 06:56:00,
2013-07-10 01:01:00,80.5,52.6,30.16,SSE,158,3.1,3.1,38,0.00,,---,0.00,VWS V14.01,2013-07-10 07:01:00,
2013-07-10 01:06:00,80.5,52.6,30.16,SE,135,2.5,4.0,38,0.00,,---,0.00,VWS V14.01,2013-07-10 07:06:00,
2013-07-10 01:11:00,80.3,52.4,30.17,South,180,3.6,3.6,38,0.00,,---,0.00,VWS V14.01,2013-07-10 07:11:00,
2013-07-10 01:16:00,80.3,52.4,30.16,South,180,2.7,2.7,38,0.00,,---,0.00,VWS V14.01,2013-07-10 07:16:00,
2013-07-10 01:21:00,80.3,52.4,30.16,SW,225,3.4,3.4,38,0.00,,---,0.00,VWS V14.01,2013-07-10 07:21:00,
2013-07-10 01:26:00,80.3,52.4,30.16,SSW,202,1.1,1.1,38,0.00,,---,0.00,VWS V14.01,2013-07-10 07:26:00,
2013-07-10 01:31:00,80.1,52.2,30.16,WSW,248,2.5,4.0,38,0.00,,---,0.00,VWS V14.01,2013-07-10 07:31:00,
2013-07-10 01:36:00,80.1,52.2,30.17,South,180,2.5,3.8,38,0.00,,---,0.00,VWS V14.01,2013-07-10 07:36:00,
2013-07-10 01:41:00,80.1,52.2,30.16,South,180,1.3,3.8,38,0.00,,---,0.00,VWS V14.01,2013-07-10 07:41:00,
2013-07-10 01:46:00,79.9,52.0,30.17,SE,135,1.1,1.1,38,0.00,,---,0.00,VWS V14.01,2013-07-10 07:46:00,
2013-07-10 01:51:00,79.7,51.9,30.16,SSW,202,1.6,2.2,38,0.00,,---,0.00,VWS V14.01,2013-07-10 07:51:00,
2013-07-10 01:56:00,79.6,52.5,30.15,SSW,202,1.1,2.0,39,0.00,,---,0.00,VWS V14.01,2013-07-10 07:56:00,
2013-07-10 02:01:00,79.2,52.1,30.15,SW,225,0.4,0.4,39,0.00,,---,0.00,VWS V14.01,2013-07-10 08:01:00,
2013-07-10 02:06:00,79.0,52.0,30.15,SW,225,0.0,0.0,39,0.00,,---,0.00,VWS V14.01,2013-07-10 08:06:00,
2013-07-10 02:11:00,78.8,51.8,30.16,SW,225,0.0,0.0,39,0.00,,---,0.00,VWS V14.01,2013-07-10 08:11:00,
2013-07-10 02:16:00,78.7,52.4,30.15,SE,135,1.3,1.3,40,0.00,,---,0.00,VWS V14.01,2013-07-10 08:16:00,
2013-07-10 02:21:00,78.7,52.4,30.16,SE,135,1.1,1.6,40,0.00,,---,0.00,VWS V14.01,2013-07-10 08:21:00,
2013-07-10 02:26:00,78.5,52.2,30.15,SSE,158,0.4,0.4,40,0.00,,---,0.00,VWS V14.01,2013-07-10 08:26:00,
2013-07-10 02:30:00,78.5,52.2,30.15,SSE,158,0.0,0.0,40,0.00,,---,0.00,VWS V14.01,2013-07-10 08:30:00,
2013-07-10 02:31:00,78.5,52.2,30.15,SSE,158,0.0,0.0,40,0.00,,---,0.00,VWS V14.01,2013-07-10 08:31:00,
2013-07-10 02:36:00,78.3,52.0,30.15,SSE,158,0.0,0.0,40,0.00,,---,0.00,VWS V14.01,2013-07-10 08:36:00,
2013-07-10 02:41:00,78.1,52.5,30.15,South,180,0.4,0.9,41,0.00,,---,0.00,VWS V14.01,2013-07-10 08:41:00,
2013-07-10 02:46:00,78.1,52.5,30.16,WSW,248,1.1,1.1,41,0.00,,---,0.00,VWS V14.01,2013-07-10 08:46:00,
2013-07-10 02:51:00,78.1,52.5,30.16,WSW,248,0.4,0.4,41,0.00,,---,0.00,VWS V14.01,2013-07-10 08:51:00,
2013-07-10 02:56:00,78.1,53.2,30.17,West,270,1.1,1.1,42,0.00,,---,0.00,VWS V14.01,2013-07-10 08:56:00,
2013-07-10 03:01:00,77.8,53.5,30.16,West,270,0.7,0.9,43,0.00,,---,0.00,VWS V14.01,2013-07-10 09:01:00,
2013-07-10 03:06:00,77.4,53.2,30.16,West,270,0.0,0.9,43,0.00,,---,0.00,VWS V14.01,2013-07-10 09:06:00,
2013-07-10 03:11:00,77.0,52.8,30.16,West,270,0.9,0.9,43,0.00,,---,0.00,VWS V14.01,2013-07-10 09:11:00,
2013-07-10 03:16:00,76.5,53.0,30.16,NNE,22,0.0,0.4,44,0.00,,---,0.00,VWS V14.01,2013-07-10 09:16:00,
2013-07-10 03:21:00,76.3,52.8,30.16,NNE,22,0.0,0.0,44,0.00,,---,0.00,VWS V14.01,2013-07-10 09:21:00,
2013-07-10 03:26:00,76.0,52.5,30.16,NNE,22,0.0,0.4,44,0.00,,---,0.00,VWS V14.01,2013-07-10 09:26:00,
2013-07-10 03:31:00,75.8,54.2,30.17,ESE,112,1.1,1.3,47,0.00,,---,0.00,VWS V14.01,2013-07-10 09:31:00,
2013-07-10 03:36:00,75.6,53.4,30.16,ESE,112,0.4,1.3,46,0.00,,---,0.00,VWS V14.01,2013-07-10 09:36:00,
2013-07-10 03:41:00,75.4,53.2,30.15,ENE,68,0.9,1.1,46,0.00,,---,0.00,VWS V14.01,2013-07-10 09:41:00,
2013-07-10 03:46:00,75.2,53.6,30.16,ENE,68,0.0,0.0,47,0.00,,---,0.00,VWS V14.01,2013-07-10 09:46:00,
2013-07-10 03:51:00,75.1,53.5,30.16,ENE,68,0.0,0.0,47,0.00,,---,0.00,VWS V14.01,2013-07-10 09:51:00,
2013-07-10 03:56:00,74.7,53.2,30.16,ENE,68,0.0,0.0,47,0.00,,---,0.00,VWS V14.01,2013-07-10 09:56:00,
2013-07-10 04:01:00,74.5,53.0,30.16,ENE,68,0.0,0.0,47,0.00,,---,0.00,VWS V14.01,2013-07-10 10:01:00,
2013-07-10 04:06:00,74.3,52.8,30.16,ENE,68,0.0,0.0,47,0.00,,---,0.00,VWS V14.01,2013-07-10 10:06:00,
2013-07-10 04:11:00,74.2,53.8,30.16,ENE,68,0.0,0.0,49,0.00,,---,0.00,VWS V14.01,2013-07-10 10:11:00,
2013-07-10 04:16:00,73.6,53.3,30.16,ENE,68,0.0,0.0,49,0.00,,---,0.00,VWS V14.01,2013-07-10 10:16:00,
2013-07-10 04:21:00,73.1,53.4,30.17,ENE,68,0.0,0.0,50,0.00,,---,0.00,VWS V14.01,2013-07-10 10:21:00,
2013-07-10 04:26:00,72.9,53.2,30.16,ENE,68,0.0,0.0,50,0.00,,---,0.00,VWS V14.01,2013-07-10 10:26:00,
2013-07-10 04:31:00,72.7,53.5,30.16,ENE,68,0.0,0.0,51,0.00,,---,0.00,VWS V14.01,2013-07-10 10:31:00,
2013-07-10 04:36:00,72.5,53.4,30.17,ENE,68,0.0,0.0,51,0.00,,---,0.00,VWS V14.01,2013-07-10 10:36:00,
2013-07-10 04:41:00,72.4,54.3,30.17,ENE,68,0.0,0.0,53,0.00,,---,0.00,VWS V14.01,2013-07-10 10:41:00,
2013-07-10 04:46:00,72.7,55.1,30.17,ENE,68,0.9,0.9,54,0.00,,---,0.00,VWS V14.01,2013-07-10 10:46:00,
2013-07-10 04:51:00,72.5,54.9,30.17,ESE,112,0.4,1.1,54,0.00,,---,0.00,VWS V14.01,2013-07-10 10:51:00,
2013-07-10 04:55:00,72.5,54.4,30.17,SSE,158,0.7,0.7,53,0.00,,---,0.00,VWS V14.01,2013-07-10 10:55:00,
2013-07-10 05:00:00,72.7,54.1,30.17,SSE,158,0.7,0.7,52,0.00,,---,0.00,VWS V14.01,2013-07-10 11:00:00,
2013-07-10 05:05:00,72.7,54.1,30.17,SE,135,0.0,0.7,52,0.00,,---,0.00,VWS V14.01,2013-07-10 11:05:00,
2013-07-10 05:10:00,72.7,54.1,30.17,SE,135,0.0,0.0,52,0.00,,---,0.00,VWS V14.01,2013-07-10 11:10:00,
2013-07-10 05:15:00,72.5,54.4,30.17,ESE,112,0.4,0.7,53,0.00,,---,0.00,VWS V14.01,2013-07-10 11:15:00,
2013-07-10 05:20:00,72.5,54.4,30.17,ESE,112,0.0,0.0,53,0.00,,---,0.00,VWS V14.01,2013-07-10 11:20:00,
2013-07-10 05:25:00,72.4,53.8,30.17,ESE,112,0.0,0.0,52,0.00,,---,0.00,VWS V14.01,2013-07-10 11:25:00,
2013-07-10 05:30:00,72.4,54.8,30.17,SW,225,0.9,1.1,54,0.00,,---,0.00,VWS V14.01,2013-07-10 11:30:00,
2013-07-10 05:35:00,72.5,54.9,30.17,WSW,248,0.4,1.1,54,0.00,,---,0.00,VWS V14.01,2013-07-10 11:35:00,
2013-07-10 05:40:00,72.7,55.1,30.17,WNW,292,0.7,1.1,54,0.00,,---,0.00,VWS V14.01,2013-07-10 11:40:00,
2013-07-10 05:45:00,72.7,55.1,30.17,NW,315,0.2,0.2,54,0.00,,---,0.00,VWS V14.01,2013-07-10 11:45:00,
2013-07-10 05:50:00,72.7,55.1,30.18,NW,315,0.2,0.4,54,0.00,,---,0.00,VWS V14.01,2013-07-10 11:50:00,
2013-07-10 05:55:00,72.7,55.6,30.18,WNW,292,0.0,0.0,55,0.00,,---,0.00,VWS V14.01,2013-07-10 11:55:00,
2013-07-10 06:00:00,72.7,55.1,30.17,WNW,292,0.0,0.0,54,0.00,,---,0.00,VWS V14.01,2013-07-10 12:00:00,
2013-07-10 06:05:00,72.4,54.8,30.17,WNW,292,0.0,0.0,54,0.00,,---,0.00,VWS V14.01,2013-07-10 12:05:00,
2013-07-10 06:10:00,72.0,55.0,30.17,WNW,292,0.0,0.0,55,0.00,,---,0.00,VWS V14.01,2013-07-10 12:10:00,
2013-07-10 06:15:00,71.6,55.1,30.17,WNW,292,0.0,0.0,56,0.00,,---,0.00,VWS V14.01,2013-07-10 12:15:00,
2013-07-10 06:20:00,71.6,56.5,30.18,WSW,248,0.2,0.4,59,0.00,,---,0.00,VWS V14.01,2013-07-10 12:20:00,
2013-07-10 06:25:00,71.6,56.1,30.17,WSW,248,0.0,0.0,58,0.00,,---,0.00,VWS V14.01,2013-07-10 12:25:00,
2013-07-10 06:30:00,72.0,56.0,30.18,WNW,292,0.7,0.7,57,0.00,,---,0.00,VWS V14.01,2013-07-10 12:30:00,
2013-07-10 06:35:00,72.0,56.4,30.18,NW,315,0.0,0.0,58,0.00,,---,0.00,VWS V14.01,2013-07-10 12:35:00,
2013-07-10 06:40:00,72.0,56.9,30.18,NW,315,0.2,0.2,59,0.00,,---,0.00,VWS V14.01,2013-07-10 12:40:00,
2013-07-10 06:45:00,72.0,56.9,30.18,NW,315,0.0,0.0,59,0.00,,---,0.00,VWS V14.01,2013-07-10 12:45:00,
2013-07-10 06:50:00,72.2,57.1,30.19,NW,315,0.0,0.4,59,0.00,,---,0.00,VWS V14.01,2013-07-10 12:50:00,
2013-07-10 06:55:00,72.4,57.3,30.18,NW,315,0.0,0.0,59,0.00,,---,0.00,VWS V14.01,2013-07-10 12:55:00,
2013-07-10 07:00:00,73.4,58.2,30.18,NW,315,0.0,0.0,59,0.00,,---,0.00,VWS V14.01,2013-07-10 13:00:00,
2013-07-10 07:05:00,73.8,58.1,30.19,NW,315,0.0,0.0,58,0.00,,---,0.00,VWS V14.01,2013-07-10 13:05:00,
2013-07-10 07:10:00,73.4,57.7,30.19,NW,315,0.4,0.4,58,0.00,,---,0.00,VWS V14.01,2013-07-10 13:10:00,
2013-07-10 07:15:00,74.3,58.6,30.20,NW,315,0.0,0.0,58,0.00,,---,0.00,VWS V14.01,2013-07-10 13:15:00,
2013-07-10 07:20:00,76.0,59.2,30.19,NW,315,0.0,0.0,56,0.00,,---,0.00,VWS V14.01,2013-07-10 13:20:00,
2013-07-10 07:25:00,77.0,59.6,30.19,NW,315,0.0,0.0,55,0.00,,---,0.00,VWS V14.01,2013-07-10 13:25:00,
2013-07-10 07:30:00,77.9,59.4,30.19,NW,315,0.0,0.0,53,0.00,,---,0.00,VWS V14.01,2013-07-10 13:30:00,
2013-07-10 07:35:00,80.3,60.0,30.19,NW,315,0.0,0.0,50,0.00,,---,0.00,VWS V14.01,2013-07-10 13:35:00,
2013-07-10 07:40:00,81.0,60.1,30.20,NW,315,0.0,0.0,49,0.00,,---,0.00,VWS V14.01,2013-07-10 13:40:00,
2013-07-10 07:45:00,81.4,59.3,30.20,NNW,338,1.3,1.8,47,0.00,,---,0.00,VWS V14.01,2013-07-10 13:45:00,
2013-07-10 07:50:00,81.0,58.9,30.20,WNW,292,1.1,1.3,47,0.00,,---,0.00,VWS V14.01,2013-07-10 13:50:00,
2013-07-10 07:55:00,80.8,57.5,30.20,West,270,1.1,1.1,45,0.00,,---,0.00,VWS V14.01,2013-07-10 13:55:00,
2013-07-10 08:00:00,81.4,58.7,30.20,WNW,292,0.4,0.4,46,0.00,,---,0.00,VWS V14.01,2013-07-10 14:00:00,
2013-07-10 08:05:00,82.6,58.5,30.21,NNW,338,1.1,1.8,44,0.00,,---,0.00,VWS V14.01,2013-07-10 14:05:00,
2013-07-10 08:10:00,83.2,59.0,30.20,NW,315,1.6,1.6,44,0.00,,---,0.00,VWS V14.01,2013-07-10 14:10:00,
2013-07-10 08:15:00,83.2,59.0,30.20,West,270,1.1,1.1,44,0.00,,---,0.00,VWS V14.01,2013-07-10 14:15:00,
2013-07-10 08:20:00,82.6,58.5,30.21,West,270,0.0,0.4,44,0.00,,---,0.00,VWS V14.01,2013-07-10 14:20:00,
2013-07-10 08:25:00,83.3,57.8,30.20,WSW,248,0.2,1.1,42,0.00,,---,0.00,VWS V14.01,2013-07-10 14:25:00,
2013-07-10 08:30:00,84.2,58.6,30.20,NNW,338,0.4,1.6,42,0.00,,---,0.00,VWS V14.01,2013-07-10 14:30:00,
2013-07-10 08:35:00,84.8,59.2,30.21,West,270,1.1,1.1,42,0.00,,---,0.00,VWS V14.01,2013-07-10 14:35:00,
2013-07-10 08:40:00,85.9,58.8,30.21,NNW,338,0.4,0.4,40,0.00,,---,0.00,VWS V14.01,2013-07-10 14:40:00,
2013-07-10 08:45:00,87.5,59.5,30.20,NW,315,0.7,0.7,39,0.00,,---,0.00,VWS V14.01,2013-07-10 14:45:00,
2013-07-10 08:50:00,87.1,55.4,30.20,WSW,248,2.2,2.2,34,0.00,,---,0.00,VWS V14.01,2013-07-10 14:50:00,
2013-07-10 08:55:00,86.0,55.2,30.21,West,270,2.5,2.5,35,0.00,,---,0.00,VWS V14.01,2013-07-10 14:55:00,
2013-07-10 09:00:00,84.8,54.1,30.21,WSW,248,1.1,1.1,35,0.00,,---,0.00,VWS V14.01,2013-07-10 15:00:00,
2013-07-10 09:05:00,85.1,54.4,30.20,West,270,2.2,2.2,35,0.00,,---,0.00,VWS V14.01,2013-07-10 15:05:00,
2013-07-10 09:10:00,85.5,54.8,30.20,West,270,2.2,2.5,35,0.00,,---,0.00,VWS V14.01,2013-07-10 15:10:00,
2013-07-10 09:15:00,85.9,57.4,30.21,NW,315,2.9,3.1,38,0.00,,---,0.00,VWS V14.01,2013-07-10 15:15:00,
2013-07-10 09:20:00,86.2,56.9,30.21,NW,315,3.4,3.6,37,0.00,,---,0.00,VWS V14.01,2013-07-10 15:20:00,
2013-07-10 09:25:00,86.0,56.7,30.21,NW,315,2.5,2.9,37,0.00,,---,0.00,VWS V14.01,2013-07-10 15:25:00,
2013-07-10 09:30:00,86.0,57.5,30.21,NW,315,2.5,4.3,38,0.00,,---,0.00,VWS V14.01,2013-07-10 15:30:00,
2013-07-10 09:35:00,86.6,58.0,30.21,WNW,292,1.1,1.3,38,0.00,,---,0.00,VWS V14.01,2013-07-10 15:35:00,
2013-07-10 09:40:00,86.4,57.1,30.21,WNW,292,2.5,2.5,37,0.00,,---,0.00,VWS V14.01,2013-07-10 15:40:00,
2013-07-10 09:45:00,86.2,56.9,30.21,West,270,1.6,1.8,37,0.00,,---,0.00,VWS V14.01,2013-07-10 15:45:00,
2013-07-10 09:50:00,86.2,56.9,30.21,NW,315,1.8,2.0,37,0.00,,---,0.00,VWS V14.01,2013-07-10 15:50:00,
2013-07-10 09:55:00,85.7,56.5,30.21,WNW,292,3.1,3.1,37,0.00,,---,0.00,VWS V14.01,2013-07-10 15:55:00,
2013-07-10 10:00:00,85.0,56.6,30.21,NW,315,2.2,2.5,38,0.00,,---,0.00,VWS V14.01,2013-07-10 16:00:00,
2013-07-10 10:05:00,85.5,56.3,30.21,West,270,3.1,5.4,37,0.00,,---,0.00,VWS V14.01,2013-07-10 16:05:00,
2013-07-10 10:10:00,85.7,57.2,30.21,West,270,1.6,1.8,38,0.00,,---,0.00,VWS V14.01,2013-07-10 16:10:00,
2013-07-10 10:15:00,85.9,56.6,30.21,NNW,338,4.0,6.3,37,0.00,,---,0.00,VWS V14.01,2013-07-10 16:15:00,
2013-07-10 10:20:00,86.0,55.2,30.21,West,270,2.5,2.5,35,0.00,,---,0.00,VWS V14.01,2013-07-10 16:20:00,
2013-07-10 10:25:00,86.6,55.7,30.21,NW,315,4.3,4.3,35,0.00,,---,0.00,VWS V14.01,2013-07-10 16:25:00,
2013-07-10 10:30:00,87.1,55.4,30.21,North,0,4.0,4.0,34,0.00,,---,0.00,VWS V14.01,2013-07-10 16:30:00,
2013-07-10 10:35:00,87.7,55.1,30.21,ESE,112,2.0,2.0,33,0.00,,---,0.00,VWS V14.01,2013-07-10 16:35:00,
2013-07-10 10:40:00,88.6,56.7,30.21,NW,315,1.6,1.8,34,0.00,,---,0.00,VWS V14.01,2013-07-10 16:40:00,
2013-07-10 10:45:00,88.9,56.9,30.21,WNW,292,1.8,1.8,34,0.00,,---,0.00,VWS V14.01,2013-07-10 16:45:00,
2013-07-10 10:50:00,89.1,56.3,30.21,ENE,68,2.2,2.2,33,0.00,,---,0.00,VWS V14.01,2013-07-10 16:50:00,
2013-07-10 10:55:00,88.9,56.9,30.21,North,0,3.1,3.1,34,0.00,,---,0.00,VWS V14.01,2013-07-10 16:55:00,
2013-07-10 11:00:00,88.6,56.7,30.21,NNW,338,1.8,1.8,34,0.00,,---,0.00,VWS V14.01,2013-07-10 17:00:00,
2013-07-10 11:05:00,88.9,56.1,30.21,NNW,338,3.4,3.4,33,0.00,,---,0.00,VWS V14.01,2013-07-10 17:05:00,
2013-07-10 11:10:00,89.5,56.6,30.20,SE,135,1.3,1.3,33,0.00,,---,0.00,VWS V14.01,2013-07-10 17:10:00,
2013-07-10 11:15:00,89.5,56.6,30.20,NE,45,3.4,4.0,33,0.00,,---,0.00,VWS V14.01,2013-07-10 17:15:00,
2013-07-10 11:20:00,89.8,56.0,30.20,ENE,68,3.4,3.4,32,0.00,,---,0.00,VWS V14.01,2013-07-10 17:20:00,
2013-07-10 11:25:00,90.2,56.4,30.20,WSW,248,2.0,2.0,32,0.00,,---,0.00,VWS V14.01,2013-07-10 17:25:00,
2013-07-10 11:30:00,87.7,55.1,30.20,WSW,248,0.0,0.4,33,0.00,,---,0.00,VWS V14.01,2013-07-10 17:30:00,
2013-07-10 11:35:00,88.6,55.8,30.20,WSW,248,2.9,2.9,33,0.00,,---,0.00,VWS V14.01,2013-07-10 17:35:00,
2013-07-10 11:40:00,87.8,53.4,30.20,South,180,4.0,6.0,31,0.00,,---,0.00,VWS V14.01,2013-07-10 17:40:00,
2013-07-10 11:45:00,87.8,52.5,30.20,SSW,202,4.7,4.7,30,0.00,,---,0.00,VWS V14.01,2013-07-10 17:45:00,
2013-07-10 11:50:00,89.1,52.7,30.19,SSW,202,4.3,4.5,29,0.00,,---,0.00,VWS V14.01,2013-07-10 17:50:00,
2013-07-10 11:55:00,90.4,54.8,30.19,SW,225,1.8,1.8,30,0.00,,---,0.00,VWS V14.01,2013-07-10 17:55:00,
2013-07-10 12:00:00,90.7,54.1,30.19,SSE,158,4.3,4.3,29,0.00,,---,0.00,VWS V14.01,2013-07-10 18:00:00,
2013-07-10 12:05:00,91.1,52.5,30.18,ESE,112,1.1,1.1,27,0.00,,---,0.00,VWS V14.01,2013-07-10 18:05:00,
2013-07-10 12:10:00,91.6,52.9,30.19,SSW,202,2.5,3.1,27,0.00,,---,0.00,VWS V14.01,2013-07-10 18:10:00,
2013-07-10 12:15:00,91.4,54.7,30.18,SW,225,3.6,3.6,29,0.00,,---,0.00,VWS V14.01,2013-07-10 18:15:00,
2013-07-10 12:20:00,91.3,52.7,30.18,South,180,3.4,4.3,27,0.00,,---,0.00,VWS V14.01,2013-07-10 18:20:00,
2013-07-10 12:25:00,91.3,52.7,30.18,SSW,202,3.1,3.1,27,0.00,,---,0.00,VWS V14.01,2013-07-10 18:25:00,
2013-07-10 12:30:00,91.6,52.9,30.18,South,180,3.1,3.1,27,0.00,,---,0.00,VWS V14.01,2013-07-10 18:30:00,
2013-07-10 12:35:00,91.3,52.7,30.18,SSW,202,1.8,1.8,27,0.00,,---,0.00,VWS V14.01,2013-07-10 18:35:00,
2013-07-10 12:40:00,91.4,52.8,30.18,SW,225,2.9,2.9,27,0.00,,---,0.00,VWS V14.01,2013-07-10 18:40:00,
2013-07-10 12:45:00,90.7,54.1,30.17,SSW,202,1.8,1.8,29,0.00,,---,0.00,VWS V14.01,2013-07-10 18:45:00,
2013-07-10 12:50:00,91.1,50.4,30.17,South,180,5.8,5.8,25,0.00,,---,0.00,VWS V14.01,2013-07-10 18:50:00,
2013-07-10 12:55:00,91.3,52.7,30.17,SW,225,3.1,3.1,27,0.00,,---,0.00,VWS V14.01,2013-07-10 18:55:00,
2013-07-10 13:00:00,92.2,52.4,30.17,South,180,1.6,1.6,26,0.00,,---,0.00,VWS V14.01,2013-07-10 19:00:00,
2013-07-10 13:05:00,93.1,54.2,30.17,SW,225,1.8,1.8,27,0.00,,---,0.00,VWS V14.01,2013-07-10 19:05:00,
2013-07-10 13:10:00,93.2,53.2,30.17,SSW,202,1.1,1.1,26,0.00,,---,0.00,VWS V14.01,2013-07-10 19:10:00,
2013-07-10 13:15:00,93.2,53.2,30.16,SSW,202,3.4,3.4,26,0.00,,---,0.00,VWS V14.01,2013-07-10 19:15:00,
2013-07-10 13:20:00,93.6,52.5,30.16,WSW,248,1.8,1.8,25,0.00,,---,0.00,VWS V14.01,2013-07-10 19:20:00,
2013-07-10 13:25:00,93.8,52.7,30.16,South,180,3.4,5.1,25,0.00,,---,0.00,VWS V14.01,2013-07-10 19:25:00,
2013-07-10 13:30:00,93.6,52.5,30.16,SSW,202,5.4,5.4,25,0.00,,---,0.00,VWS V14.01,2013-07-10 19:30:00,
2013-07-10 13:35:00,93.8,51.6,30.16,SW,225,2.2,4.5,24,0.00,,---,0.00,VWS V14.01,2013-07-10 19:35:00,
2013-07-10 13:40:00,94.0,51.8,30.16,SSE,158,2.5,4.0,24,0.00,,---,0.00,VWS V14.01,2013-07-10 19:40:00,
2013-07-10 13:45:00,93.6,52.5,30.15,SSW,202,4.5,4.5,25,0.00,,---,0.00,VWS V14.01,2013-07-10 19:45:00,
2013-07-10 13:50:00,93.2,52.2,30.15,SE,135,4.5,4.5,25,0.00,,---,0.00,VWS V14.01,2013-07-10 19:50:00,
2013-07-10 13:55:00,93.4,51.2,30.15,East,90,5.1,5.1,24,0.00,,---,0.00,VWS V14.01,2013-07-10 19:55:00,
2013-07-10 14:00:00,93.8,51.6,30.15,SW,225,2.9,2.9,24,0.00,,---,0.00,VWS V14.01,2013-07-10 20:00:00,
2013-07-10 14:05:00,93.4,53.4,30.15,SSE,158,0.9,0.9,26,0.00,,---,0.00,VWS V14.01,2013-07-10 20:05:00,
2013-07-10 14:10:00,94.1,52.9,30.15,WSW,248,0.0,1.8,25,0.00,,---,0.00,VWS V14.01,2013-07-10 20:10:00,
2013-07-10 14:15:00,94.3,53.1,30.14,WSW,248,2.7,2.7,25,0.00,,---,0.00,VWS V14.01,2013-07-10 20:15:00,
2013-07-10 14:20:00,93.4,53.4,30.14,SSW,202,2.5,2.7,26,0.00,,---,0.00,VWS V14.01,2013-07-10 20:20:00,
2013-07-10 14:25:00,93.6,52.5,30.14,SW,225,5.8,5.8,25,0.00,,---,0.00,VWS V14.01,2013-07-10 20:25:00,
2013-07-10 14:30:00,94.0,53.9,30.14,SW,225,2.5,3.4,26,0.00,,---,0.00,VWS V14.01,2013-07-10 20:30:00,
2013-07-10 14:35:00,94.3,53.1,30.14,SSW,202,2.5,2.5,25,0.00,,---,0.00,VWS V14.01,2013-07-10 20:35:00,
2013-07-10 14:40:00,94.3,52.0,30.14,West,270,2.5,3.6,24,0.00,,---,0.00,VWS V14.01,2013-07-10 20:40:00,
2013-07-10 14:45:00,94.1,52.9,30.13,SSE,158,4.5,5.1,25,0.00,,---,0.00,VWS V14.01,2013-07-10 20:45:00,
2013-07-10 14:50:00,94.0,52.9,30.13,SE,135,1.1,2.5,25,0.00,,---,0.00,VWS V14.01,2013-07-10 20:50:00,
2013-07-10 14:55:00,95.0,52.6,30.13,SE,135,1.1,1.8,24,0.00,,---,0.00,VWS V14.01,2013-07-10 20:55:00,
2013-07-10 15:00:00,94.3,52.0,30.13,SW,225,4.0,6.3,24,0.00,,---,0.00,VWS V14.01,2013-07-10 21:00:00,
2013-07-10 15:05:00,94.3,52.0,30.12,SSW,202,2.5,8.3,24,0.00,,---,0.00,VWS V14.01,2013-07-10 21:05:00,
2013-07-10 15:10:00,94.5,53.3,30.13,SSW,202,2.2,2.9,25,0.00,,---,0.00,VWS V14.01,2013-07-10 21:10:00,
2013-07-10 15:15:00,95.0,51.4,30.12,SSW,202,2.5,3.4,23,0.00,,---,0.00,VWS V14.01,2013-07-10 21:15:00,
2013-07-10 15:20:00,95.0,51.4,30.12,SSW,202,3.4,3.4,23,0.00,,---,0.00,VWS V14.01,2013-07-10 21:20:00,
2013-07-10 15:25:00,95.0,51.4,30.12,SSW,202,4.5,4.5,23,0.00,,---,0.00,VWS V14.01,2013-07-10 21:25:00,
2013-07-10 15:30:00,94.5,48.6,30.12,SW,225,3.4,5.4,21,0.00,,---,0.00,VWS V14.01,2013-07-10 21:30:00,
2013-07-10 15:35:00,94.3,50.8,30.12,SW,225,3.1,3.1,23,0.00,,---,0.00,VWS V14.01,2013-07-10 21:35:00,
2013-07-10 15:40:00,94.3,50.8,30.11,SSE,158,1.8,1.8,23,0.00,,---,0.00,VWS V14.01,2013-07-10 21:40:00,
2013-07-10 15:45:00,94.9,51.3,30.11,SSW,202,4.3,4.7,23,0.00,,---,0.00,VWS V14.01,2013-07-10 21:45:00,
2013-07-10 15:50:00,95.4,51.8,30.11,SE,135,5.1,5.1,23,0.00,,---,0.00,VWS V14.01,2013-07-10 21:50:00,
2013-07-10 15:55:00,96.3,51.3,30.11,South,180,2.5,5.4,22,0.00,,---,0.00,VWS V14.01,2013-07-10 21:55:00,
2013-07-10 16:00:00,96.5,51.5,30.10,SSW,202,2.5,2.5,22,0.00,,---,0.00,VWS V14.01,2013-07-10 22:00:00,
2013-07-10 16:05:00,96.5,52.7,30.10,SE,135,2.5,2.5,23,0.00,,---,0.00,VWS V14.01,2013-07-10 22:05:00,
2013-07-10 16:10:00,97.2,52.0,30.10,SSW,202,1.8,3.4,22,0.00,,---,0.00,VWS V14.01,2013-07-10 22:10:00,
2013-07-10 16:15:00,96.5,48.9,30.10,WSW,248,1.1,5.1,20,0.00,,---,0.00,VWS V14.01,2013-07-10 22:15:00,
2013-07-10 16:20:00,95.9,51.0,30.10,WSW,248,4.7,7.6,22,0.00,,---,0.00,VWS V14.01,2013-07-10 22:20:00,
2013-07-10 16:25:00,96.1,51.1,30.10,SSW,202,1.8,2.7,22,0.00,,---,0.00,VWS V14.01,2013-07-10 22:25:00,
2013-07-10 16:30:00,97.0,51.9,30.09,SSE,158,2.5,4.0,22,0.00,,---,0.00,VWS V14.01,2013-07-10 22:30:00,
2013-07-10 16:35:00,97.6,49.8,30.09,SSW,202,1.6,2.5,20,0.00,,---,0.00,VWS V14.01,2013-07-10 22:35:00,
2013-07-10 16:40:00,97.2,49.5,30.09,SW,225,3.8,3.8,20,0.00,,---,0.00,VWS V14.01,2013-07-10 22:40:00,
2013-07-10 16:45:00,96.1,48.6,30.08,SSE,158,3.6,3.6,20,0.00,,---,0.00,VWS V14.01,2013-07-10 22:45:00,
2013-07-10 16:50:00,95.2,50.4,30.08,West,270,5.1,5.1,22,0.00,,---,0.00,VWS V14.01,2013-07-10 22:50:00,
2013-07-10 16:55:00,94.9,51.3,30.08,WSW,248,1.1,1.1,23,0.00,,---,0.00,VWS V14.01,2013-07-10 22:55:00,
2013-07-10 16:59:00,95.0,51.4,30.08,SW,225,0.7,1.8,23,0.00,,---,0.00,VWS V14.01,2013-07-10 22:59:00,
2013-07-10 17:04:00,96.5,51.5,30.08,SW,225,0.7,1.1,22,0.00,,---,0.00,VWS V14.01,2013-07-10 23:04:00,
2013-07-10 17:09:00,97.6,49.8,30.08,SSW,202,2.2,3.4,20,0.00,,---,0.00,VWS V14.01,2013-07-10 23:09:00,
2013-07-10 17:14:00,96.8,49.2,30.08,SW,225,1.1,1.8,20,0.00,,---,0.00,VWS V14.01,2013-07-10 23:14:00,
2013-07-10 17:19:00,96.3,52.5,30.08,South,180,3.4,5.4,23,0.00,,---,0.00,VWS V14.01,2013-07-10 23:19:00,
2013-07-10 17:24:00,95.0,53.7,30.08,WSW,248,1.8,3.4,25,0.00,,---,0.00,VWS V14.01,2013-07-10 23:24:00,
2013-07-10 17:29:00,94.9,53.6,30.08,SW,225,2.5,3.1,25,0.00,,---,0.00,VWS V14.01,2013-07-10 23:29:00,
2013-07-10 17:34:00,93.6,53.6,30.07,WSW,248,7.4,7.4,26,0.00,,---,0.00,VWS V14.01,2013-07-10 23:34:00,
2013-07-10 17:39:00,93.2,53.2,30.07,WSW,248,2.5,4.0,26,0.00,,---,0.00,VWS V14.01,2013-07-10 23:39:00,
2013-07-10 17:44:00,93.1,54.2,30.08,WSW,248,2.5,2.5,27,0.00,,---,0.00,VWS V14.01,2013-07-10 23:44:00,
2013-07-10 17:49:00,92.5,53.7,30.08,SW,225,2.0,2.7,27,0.00,,---,0.00,VWS V14.01,2013-07-10 23:49:00,
2013-07-10 17:54:00,92.5,53.7,30.08,WSW,248,3.1,3.4,27,0.00,,---,0.00,VWS V14.01,2013-07-10 23:54:00,
2013-07-10 17:59:00,92.2,53.4,30.08,WSW,248,4.0,5.4,27,0.00,,---,0.00,VWS V14.01,2013-07-10 23:59:00,
2013-07-10 18:04:00,92.3,53.5,30.08,SW,225,1.6,3.4,27,0.00,,---,0.00,VWS V14.01,2013-07-11 00:04:00,
2013-07-10 18:09:00,92.3,53.5,30.08,SW,225,1.8,3.1,27,0.00,,---,0.00,VWS V14.01,2013-07-11 00:09:00,
2013-07-10 18:14:00,92.3,53.5,30.08,SW,225,2.0,2.0,27,0.00,,---,0.00,VWS V14.01,2013-07-11 00:14:00,
2013-07-10 18:19:00,92.5,52.7,30.08,WSW,248,2.0,2.9,26,0.00,,---,0.00,VWS V14.01,2013-07-11 00:19:00,
2013-07-10 18:24:00,92.2,52.4,30.08,SW,225,0.9,1.8,26,0.00,,---,0.00,VWS V14.01,2013-07-11 00:24:00,
2013-07-10 18:29:00,92.2,52.4,30.08,WSW,248,1.6,1.8,26,0.00,,---,0.00,VWS V14.01,2013-07-11 00:29:00,
2013-07-10 18:34:00,91.8,51.0,30.08,West,270,2.5,3.4,25,0.00,,---,0.00,VWS V14.01,2013-07-11 00:34:00,
2013-07-10 18:39:00,91.4,50.7,30.07,WSW,248,2.5,3.4,25,0.00,,---,0.00,VWS V14.01,2013-07-11 00:39:00,
2013-07-10 18:44:00,91.6,50.8,30.08,SSW,202,1.1,1.1,25,0.00,,---,0.00,VWS V14.01,2013-07-11 00:44:00,
2013-07-10 18:49:00,91.4,49.6,30.08,SSW,202,3.1,3.1,24,0.00,,---,0.00,VWS V14.01,2013-07-11 00:49:00,
2013-07-10 18:54:00,91.3,50.6,30.07,SSW,202,1.6,1.6,25,0.00,,---,0.00,VWS V14.01,2013-07-11 00:54:00,
2013-07-10 18:55:00,91.1,50.4,30.08,SSW,202,1.6,1.6,25,0.00,,---,0.00,VWS V14.01,2013-07-11 00:55:00,
2013-07-10 19:00:00,91.1,50.4,30.08,SW,225,0.0,0.0,25,0.00,,---,0.00,VWS V14.01,2013-07-11 01:00:00,
2013-07-10 19:05:00,90.9,50.2,30.07,SSE,158,0.4,0.9,25,0.00,,---,0.00,VWS V14.01,2013-07-11 01:05:00,
2013-07-10 19:10:00,90.7,50.1,30.08,SSW,202,1.1,1.1,25,0.00,,---,0.00,VWS V14.01,2013-07-11 01:10:00,
2013-07-10 19:15:00,90.7,50.1,30.08,SW,225,0.9,1.1,25,0.00,,---,0.00,VWS V14.01,2013-07-11 01:15:00,
2013-07-10 19:20:00,90.5,49.9,30.08,SW,225,1.1,2.2,25,0.00,,---,0.00,VWS V14.01,2013-07-11 01:20:00,
2013-07-10 19:25:00,90.4,50.9,30.08,WSW,248,0.4,1.1,26,0.00,,---,0.00,VWS V14.01,2013-07-11 01:25:00,
2013-07-10 19:30:00,90.4,50.9,30.08,SW,225,0.9,1.1,26,0.00,,---,0.00,VWS V14.01,2013-07-11 01:30:00,
2013-07-10 19:35:00,90.2,50.7,30.08,SW,225,1.1,1.1,26,0.00,,---,0.00,VWS V14.01,2013-07-11 01:35:00,
2013-07-10 19:40:00,90.0,50.5,30.07,WSW,248,1.1,1.1,26,0.00,,---,0.00,VWS V14.01,2013-07-11 01:40:00,
2013-07-10 19:44:00,89.6,50.2,30.08,SW,225,0.4,1.1,26,0.00,,---,0.00,VWS V14.01,2013-07-11 01:44:00,
2013-07-10 19:49:00,89.5,50.1,30.07,SSE,158,1.3,1.3,26,0.00,,---,0.00,VWS V14.01,2013-07-11 01:49:00,
2013-07-10 19:54:00,89.3,50.0,30.07,SE,135,2.2,2.2,26,0.00,,---,0.00,VWS V14.01,2013-07-11 01:54:00,
2013-07-10 19:59:00,89.1,49.8,30.07,SE,135,1.3,1.8,26,0.00,,---,0.00,VWS V14.01,2013-07-11 01:59:00,
2013-07-10 20:04:00,88.9,49.6,30.08,SE,135,2.0,2.0,26,0.00,,---,0.00,VWS V14.01,2013-07-11 02:04:00,
2013-07-10 20:09:00,88.9,48.6,30.08,SE,135,0.2,1.8,25,0.00,,---,0.00,VWS V14.01,2013-07-11 02:09:00,
2013-07-10 20:14:00,88.6,48.3,30.08,SSE,158,1.3,3.4,25,0.00,,---,0.00,VWS V14.01,2013-07-11 02:14:00,
2013-07-10 20:19:00,88.6,51.4,30.09,SSW,202,3.8,3.8,28,0.00,,---,0.00,VWS V14.01,2013-07-11 02:19:00,
2013-07-10 20:24:00,87.5,53.2,30.09,SSE,158,2.5,4.3,31,0.00,,---,0.00,VWS V14.01,2013-07-11 02:24:00,
2013-07-10 20:29:00,86.6,53.3,30.09,SSW,202,1.3,3.6,32,0.00,,---,0.00,VWS V14.01,2013-07-11 02:29:00,
2013-07-10 20:34:00,86.2,53.8,30.10,SW,225,3.1,3.6,33,0.00,,---,0.00,VWS V14.01,2013-07-11 02:34:00,
2013-07-10 20:39:00,85.5,53.1,30.10,West,270,3.6,6.9,33,0.00,,---,0.00,VWS V14.01,2013-07-11 02:39:00,
2013-07-10 20:44:00,85.0,51.9,30.10,NNW,338,4.5,4.5,32,0.00,,---,0.00,VWS V14.01,2013-07-11 02:44:00,
2013-07-10 20:49:00,84.2,52.0,30.10,WNW,292,4.7,5.4,33,0.00,,---,0.00,VWS V14.01,2013-07-11 02:49:00,
2013-07-10 20:54:00,83.5,52.2,30.10,NNW,338,2.5,3.4,34,0.00,,---,0.00,VWS V14.01,2013-07-11 02:54:00,
2013-07-10 20:59:00,83.3,52.0,30.10,NNE,22,4.7,4.9,34,0.00,,---,0.00,VWS V14.01,2013-07-11 02:59:00,
2013-07-10 21:04:00,83.3,52.0,30.11,NNE,22,2.0,2.0,34,0.00,,---,0.00,VWS V14.01,2013-07-11 03:04:00,
2013-07-10 21:09:00,83.2,51.9,30.10,ENE,68,0.0,1.1,34,0.00,,---,0.00,VWS V14.01,2013-07-11 03:09:00,
2013-07-10 21:14:00,83.2,51.9,30.11,ENE,68,0.0,0.2,34,0.00,,---,0.00,VWS V14.01,2013-07-11 03:14:00,
2013-07-10 21:19:00,83.0,52.6,30.11,ESE,112,1.8,1.8,35,0.00,,---,0.00,VWS V14.01,2013-07-11 03:19:00,
2013-07-10 21:24:00,83.3,52.0,30.11,ENE,68,2.2,2.2,34,0.00,,---,0.00,VWS V14.01,2013-07-11 03:24:00,
2013-07-10 21:29:00,83.9,51.8,30.11,ENE,68,0.2,1.1,33,0.00,,---,0.00,VWS V14.01,2013-07-11 03:29:00,
2013-07-10 21:34:00,84.1,51.9,30.12,NE,45,4.5,4.5,33,0.00,,---,0.00,VWS V14.01,2013-07-11 03:34:00,
2013-07-10 21:39:00,84.4,51.3,30.12,ENE,68,6.9,6.9,32,0.00,,---,0.00,VWS V14.01,2013-07-11 03:39:00,
2013-07-10 21:44:00,84.2,51.2,30.12,NNE,22,2.5,3.4,32,0.00,,---,0.00,VWS V14.01,2013-07-11 03:44:00,
2013-07-10 21:49:00,84.1,51.1,30.12,NE,45,5.8,5.8,32,0.00,,---,0.00,VWS V14.01,2013-07-11 03:49:00,
2013-07-10 21:54:00,84.1,51.1,30.13,NW,315,3.1,4.5,32,0.00,,---,0.00,VWS V14.01,2013-07-11 03:54:00,
2013-07-10 21:59:00,83.9,51.8,30.13,NNW,338,6.3,6.9,33,0.00,,---,0.00,VWS V14.01,2013-07-11 03:59:00,
2013-07-10 22:01:00,83.9,51.8,30.13,North,0,4.5,4.7,33,0.00,,---,0.00,VWS V14.01,2013-07-11 04:01:00,
2013-07-10 22:06:00,83.7,51.6,30.13,NW,315,3.8,4.5,33,0.00,,---,0.00,VWS V14.01,2013-07-11 04:06:00,
2013-07-10 22:11:00,81.7,55.0,30.14,NNW,338,4.7,4.7,40,0.00,,---,0.00,VWS V14.01,2013-07-11 04:11:00,
2013-07-10 22:16:00,80.1,54.3,30.15,NNW,338,6.9,9.8,41,0.00,,---,0.00,VWS V14.01,2013-07-11 04:16:00,
2013-07-10 22:21:00,79.7,53.9,30.15,NNW,338,8.1,8.1,41,0.00,,---,0.00,VWS V14.01,2013-07-11 04:21:00,
2013-07-10 22:26:00,79.6,53.8,30.15,NNW,338,7.2,10.7,41,0.00,,---,0.00,VWS V14.01,2013-07-11 04:26:00,
2013-07-10 22:31:00,79.9,53.5,30.15,NW,315,5.4,5.4,40,0.00,,---,0.00,VWS V14.01,2013-07-11 04:31:00,
2013-07-10 22:36:00,80.1,52.9,30.15,WNW,292,7.6,7.6,39,0.00,,---,0.00,VWS V14.01,2013-07-11 04:36:00,
2013-07-10 22:41:00,79.9,52.8,30.15,NE,45,4.7,4.7,39,0.00,,---,0.00,VWS V14.01,2013-07-11 04:41:00,
2013-07-10 22:46:00,79.9,53.5,30.15,North,0,2.7,2.7,40,0.00,,---,0.00,VWS V14.01,2013-07-11 04:46:00,
2013-07-10 22:51:00,79.9,53.5,30.15,NNW,338,8.1,8.1,40,0.00,,---,0.00,VWS V14.01,2013-07-11 04:51:00,
2013-07-10 22:56:00,79.9,53.5,30.15,NNW,338,8.5,8.5,40,0.00,,---,0.00,VWS V14.01,2013-07-11 04:56:00,
2013-07-10 23:01:00,80.1,52.9,30.15,NW,315,7.6,7.6,39,0.00,,---,0.00,VWS V14.01,2013-07-11 05:01:00,
2013-07-10 23:06:00,79.6,53.2,30.15,NE,45,8.9,8.9,40,0.00,,---,0.00,VWS V14.01,2013-07-11 05:06:00,
2013-07-10 23:11:00,79.4,53.0,30.15,North,0,6.5,6.5,40,0.00,,---,0.00,VWS V14.01,2013-07-11 05:11:00,
2013-07-10 23:16:00,79.4,53.0,30.15,North,0,9.4,9.4,40,0.00,,---,0.00,VWS V14.01,2013-07-11 05:16:00,
2013-07-10 23:21:00,79.2,52.8,30.15,NNE,22,6.9,6.9,40,0.00,,---,0.00,VWS V14.01,2013-07-11 05:21:00,
2013-07-10 23:26:00,79.4,53.0,30.15,North,0,2.9,2.9,40,0.00,,---,0.00,VWS V14.01,2013-07-11 05:26:00,
2013-07-10 23:31:00,79.2,53.5,30.15,NNW,338,7.4,7.4,41,0.00,,---,0.00,VWS V14.01,2013-07-11 05:31:00,
2013-07-10 23:36:00,79.0,53.3,30.15,NW,315,2.5,2.5,41,0.00,,---,0.00,VWS V14.01,2013-07-11 05:36:00,
2013-07-10 23:41:00,78.8,53.8,30.15,North,0,4.9,6.9,42,0.00,,---,0.00,VWS V14.01,2013-07-11 05:41:00,
2013-07-10 23:46:00,78.8,53.8,30.15,NW,315,5.4,8.9,42,0.00,,---,0.00,VWS V14.01,2013-07-11 05:46:00,
2013-07-10 23:51:00,78.8,53.8,30.16,NNE,22,1.3,1.3,42,0.00,,---,0.00,VWS V14.01,2013-07-11 05:51:00,
2013-07-10 23:56:00,79.0,53.3,30.15,ENE,68,3.4,3.4,41,0.00,,---,0.00,VWS V14.01,2013-07-11 05:56:00,